This is the latest recevied weather packets stored in our database for station/object KF4CQ. If no packets are shown the sender has not sent any weather packets the latest 10 day(s).
| Time | Temp. | Humidity | Pressure | Rain* | Wind** | Luminosity | Snow |
|---|---|---|---|---|---|---|---|
| 1777471940 | 26.67° C | 79% | 1019.4 hPa | 0 mm | - | 344 W/m² | - |
| 1777471334 | 25° C | 82% | 1019.2 hPa | 0 mm | - | 396 W/m² | - |
| 1777469816 | 23.89° C | 87% | 1019.3 hPa | 0 mm | - | 298 W/m² | - |
| 1777469512 | 23.89° C | 87% | 1019.4 hPa | 0 mm | - | 257 W/m² | - |
| 1777469207 | 23.33° C | 89% | 1019.4 hPa | 0 mm | - | 245 W/m² | - |
| 1777468598 | 23.33° C | 90% | 1019.6 hPa | 0 mm | - | 233 W/m² | - |
| 1777468295 | 23.33° C | 88% | 1019.5 hPa | 0 mm | - | 242 W/m² | - |
| 1777467687 | 22.78° C | 92% | 1019.6 hPa | 0 mm | - | 191 W/m² | - |
| 1777467078 | 21.67° C | 95% | 1019.4 hPa | 0 mm | - | 154 W/m² | - |
| 1777465562 | 19.44° C | 99% | 1019.3 hPa | 0 mm | - | 67 W/m² | - |
| 1777465256 | 19.44° C | 99% | 1019.2 hPa | 0 mm | - | 67 W/m² | - |
| 1777463734 | 18.33° C | 99% | 1018.7 hPa | 0 mm | - | 57 W/m² | - |
| 1777463125 | 18.33° C | 99% | 1018.2 hPa | 0 mm | - | 41 W/m² | - |
| 1777462516 | 17.78° C | 99% | 1018.1 hPa | 0 mm | - | 22 W/m² | - |
| 1777462213 | 17.78° C | 99% | 1018.3 hPa | 0 mm | - | 18 W/m² | - |
| 1777461606 | 17.22° C | 99% | 1017.9 hPa | 0 mm | - | 13 W/m² | - |
| 1777461301 | 17.22° C | 99% | 1018 hPa | 0 mm | - | 12 W/m² | - |
| 1777460997 | 17.22° C | 99% | 1018 hPa | 0 mm | - | 10 W/m² | - |
| 1777460693 | 16.67° C | 99% | 1017.9 hPa | 0 mm | - | 7 W/m² | - |
| 1777460388 | 16.67° C | 99% | 1018 hPa | 0 mm | - | 4 W/m² | - |
| 1777459176 | 16.67° C | 99% | 1017.5 hPa | 0 mm | - | 0 W/m² | - |
| 1777458873 | 16.67° C | 99% | 1017.7 hPa | 0 mm | - | 0 W/m² | - |
| 1777458570 | 16.67° C | 99% | 1017.5 hPa | 0 mm | - | 0 W/m² | - |
| 1777458267 | 16.67° C | 99% | 1017.7 hPa | 0 mm | - | 0 W/m² | - |
| 1777457962 | 16.11° C | 99% | 1017.6 hPa | 0 mm | - | 0 W/m² | - |
* Rain latest hour (hover to see other rain measurements)
** Current wind speed in m/s (hover to see current wind gust speed)